createdAt,value
2019-05-01T00:04:51.230Z,22.00
2019-05-01T00:07:20.352Z,20.97
2019-05-01T00:09:48.672Z,20.57
2019-05-01T00:12:17.036Z,19.00
2019-05-01T00:14:45.529Z,23.23
2019-05-01T00:17:14.985Z,22.67
2019-05-01T00:19:43.332Z,23.17
2019-05-01T00:22:11.744Z,20.47
2019-05-01T00:24:40.948Z,21.15
2019-05-01T00:27:09.343Z,18.80
2019-05-01T00:29:37.679Z,17.80
2019-05-01T00:32:06.040Z,16.90
2019-05-01T00:34:34.480Z,21.85
2019-05-01T00:37:02.845Z,17.83
2019-05-01T00:39:31.175Z,17.50
2019-05-01T00:44:33.777Z,21.42
2019-05-01T00:47:02.147Z,18.23
2019-05-01T00:49:30.530Z,17.03
2019-05-01T00:51:58.907Z,18.63
2019-05-01T00:54:27.282Z,18.17
2019-05-01T00:57:00.232Z,18.53
2019-05-01T00:59:28.744Z,19.98
2019-05-01T01:02:00.063Z,20.92
2019-05-01T01:07:02.818Z,21.05
2019-05-01T01:09:31.160Z,18.50
2019-05-01T01:11:59.509Z,16.37
2019-05-01T01:14:27.877Z,22.20
2019-05-01T01:16:56.246Z,17.67
2019-05-01T01:19:24.596Z,17.63
2019-05-01T01:21:53.007Z,18.67
2019-05-01T01:24:21.363Z,20.23
2019-05-01T01:26:49.908Z,18.90
2019-05-01T01:29:19.192Z,20.70
2019-05-01T01:31:47.537Z,18.90
2019-05-01T01:34:15.883Z,18.07
2019-05-01T01:36:44.236Z,21.52
2019-05-01T01:39:12.619Z,19.20
2019-05-01T01:41:41.939Z,16.40
2019-05-01T01:44:26.910Z,16.07
2019-05-01T01:52:03.807Z,19.05
2019-05-01T01:54:32.169Z,17.00
2019-05-01T01:57:00.581Z,16.80
2019-05-01T01:59:28.941Z,16.90
2019-05-01T02:02:00.572Z,16.97
2019-05-01T02:04:39.849Z,16.23
2019-05-01T02:07:08.181Z,21.02
2019-05-01T02:09:36.609Z,16.83
2019-05-01T02:12:04.957Z,16.53
2019-05-01T02:14:33.386Z,14.93
2019-05-01T02:17:01.736Z,20.33
2019-05-01T02:19:30.087Z,19.80
2019-05-01T02:21:58.543Z,23.12
2019-05-01T02:24:26.921Z,19.73
2019-05-01T02:27:00.653Z,17.93
2019-05-01T02:29:29.056Z,17.87
2019-05-01T02:31:57.403Z,18.43
2019-05-01T02:34:25.802Z,21.80
2019-05-01T02:36:54.162Z,17.70
2019-05-01T02:39:22.535Z,16.73
2019-05-01T02:41:50.921Z,16.23
2019-05-01T02:44:20.251Z,16.70
2019-05-01T02:46:48.552Z,17.40
2019-05-01T02:49:25.121Z,20.67
2019-05-01T02:51:53.491Z,16.50
2019-05-01T02:56:59.918Z,19.90
2019-05-01T02:59:29.367Z,17.10
2019-05-01T03:01:58.692Z,20.77
2019-05-01T03:04:27.133Z,17.83
2019-05-01T03:06:55.529Z,15.70
2019-05-01T03:09:23.916Z,17.23
2019-05-01T03:11:52.302Z,16.23
2019-05-01T03:14:20.687Z,16.70
2019-05-01T03:16:49.132Z,17.57
2019-05-01T03:19:21.667Z,16.37
2019-05-01T03:24:25.171Z,20.35
2019-05-01T03:26:53.567Z,17.40
2019-05-01T03:29:21.897Z,16.03
2019-05-01T03:32:14.335Z,16.43
2019-05-01T03:34:18.728Z,20.25
2019-05-01T03:36:47.396Z,21.30
2019-05-01T03:41:49.990Z,21.55
2019-05-01T03:44:18.330Z,16.40
2019-05-01T03:46:46.693Z,17.53
2019-05-01T03:49:15.785Z,15.17
2019-05-01T03:54:19.383Z,20.45
2019-05-01T03:56:47.739Z,16.43
2019-05-01T03:59:16.144Z,16.40
2019-05-01T04:01:59.263Z,16.53
2019-05-01T04:04:27.581Z,16.87
2019-05-01T04:06:56.761Z,21.62
2019-05-01T04:09:26.179Z,17.80
2019-05-01T04:11:54.533Z,17.23
2019-05-01T04:14:26.818Z,17.10
2019-05-01T04:16:56.216Z,15.97
2019-05-01T04:19:24.610Z,16.17
2019-05-01T04:21:52.953Z,15.87
2019-05-01T04:24:21.386Z,15.47
2019-05-01T04:26:49.750Z,18.63
2019-05-01T04:29:23.472Z,15.80
2019-05-01T04:31:52.553Z,16.57
2019-05-01T04:34:34.664Z,16.30
2019-05-01T04:37:05.419Z,14.60
2019-05-01T04:42:07.975Z,19.00
2019-05-01T04:44:36.329Z,16.10
2019-05-01T04:47:04.769Z,15.23
2019-05-01T04:49:33.149Z,18.10
2019-05-01T04:52:01.501Z,18.00
2019-05-01T04:54:29.918Z,16.40
2019-05-01T04:56:58.280Z,15.10
2019-05-01T04:59:26.631Z,16.67
2019-05-01T05:01:57.205Z,17.07
2019-05-01T05:04:23.802Z,17.80
2019-05-01T05:06:52.231Z,16.37
2019-05-01T05:09:20.584Z,19.12
2019-05-01T05:14:31.457Z,18.00
2019-05-01T05:17:02.145Z,17.33
2019-05-01T05:19:30.680Z,17.43
2019-05-01T05:22:00.109Z,18.05
2019-05-01T05:24:28.461Z,17.75
2019-05-01T05:26:56.904Z,16.37
2019-05-01T05:29:25.295Z,15.07
2019-05-01T05:31:53.969Z,15.80
2019-05-01T05:34:22.374Z,13.40
2019-05-01T05:36:50.724Z,14.03
2019-05-01T05:39:19.870Z,14.67
2019-05-01T05:41:48.298Z,13.00
2019-05-01T05:44:16.631Z,13.00
2019-05-01T05:46:44.970Z,16.17
2019-05-01T05:49:13.622Z,13.80
2019-05-01T05:51:42.178Z,14.23
2019-05-01T05:57:11.979Z,15.35
2019-05-01T05:59:42.716Z,16.57
2019-05-01T06:05:02.176Z,16.52
2019-05-01T06:10:07.071Z,15.27
2019-05-01T06:12:48.553Z,12.87
2019-05-01T06:18:08.270Z,15.38
2019-05-01T06:20:39.196Z,13.90
2019-05-01T06:23:15.719Z,13.30
2019-05-01T06:25:40.281Z,14.70
2019-05-01T06:28:08.632Z,15.45
2019-05-01T06:30:37.016Z,15.10
2019-05-01T06:33:09.377Z,13.30
2019-05-01T06:35:37.677Z,16.20
2019-05-01T06:38:02.896Z,14.90
2019-05-01T06:43:05.472Z,18.30
2019-05-01T06:45:33.834Z,16.90
2019-05-01T06:48:03.060Z,14.83
2019-05-01T06:50:32.147Z,16.45
2019-05-01T06:53:04.320Z,15.80
2019-05-01T06:55:28.964Z,13.73
2019-05-01T06:57:58.086Z,12.47
2019-05-01T07:00:27.438Z,14.27
2019-05-01T07:02:56.684Z,13.17
2019-05-01T07:07:59.184Z,15.52
2019-05-01T07:13:05.040Z,16.10
2019-05-01T07:18:05.478Z,16.60
2019-05-01T07:23:08.104Z,14.52
2019-05-01T07:25:39.399Z,13.13
2019-05-01T07:28:04.928Z,13.00
2019-05-01T07:30:34.158Z,12.07
2019-05-01T07:33:02.724Z,12.73
2019-05-01T07:35:32.921Z,14.98
2019-05-01T07:38:02.310Z,14.17
2019-05-01T07:43:07.464Z,14.37
2019-05-01T07:45:39.006Z,15.00
2019-05-01T07:48:06.875Z,14.10
2019-05-01T07:50:35.022Z,14.43
2019-05-01T07:53:03.364Z,11.57
2019-05-01T07:55:36.712Z,12.20
2019-05-01T07:58:10.478Z,14.48
2019-05-01T08:00:43.416Z,12.83
2019-05-01T08:03:11.817Z,13.20
2019-05-01T08:10:48.601Z,13.50
2019-05-01T08:15:51.231Z,12.77
2019-05-01T08:18:24.048Z,12.77
2019-05-01T08:23:47.247Z,12.77
2019-05-01T08:28:46.276Z,12.67
2019-05-01T08:31:22.970Z,12.40
2019-05-01T08:34:00.273Z,14.30
2019-05-01T08:36:28.619Z,13.93
2019-05-01T08:38:57.107Z,13.43
2019-05-01T08:41:27.095Z,13.57
2019-05-01T08:43:55.746Z,14.00
2019-05-01T08:46:27.761Z,13.50
2019-05-01T08:49:06.814Z,12.70
2019-05-01T08:54:08.649Z,13.40
2019-05-01T08:56:37.062Z,13.70
2019-05-01T09:01:45.800Z,12.40
2019-05-01T09:06:46.270Z,13.40
2019-05-01T09:09:14.632Z,14.47
2019-05-01T09:11:43.020Z,12.90
2019-05-01T09:14:11.392Z,12.53
2019-05-01T09:19:13.976Z,12.70
2019-05-01T09:24:16.626Z,13.83
2019-05-01T09:26:50.233Z,12.73
2019-05-01T09:31:48.485Z,13.25
2019-05-01T09:34:19.067Z,12.20
2019-05-01T09:36:46.144Z,12.10
2019-05-01T09:41:48.915Z,12.32
2019-05-01T09:53:50.272Z,10.70
2019-05-01T09:56:20.371Z,10.57
2019-05-01T09:58:48.745Z,11.63
2019-05-01T10:01:17.078Z,11.10
2019-05-01T10:03:49.566Z,11.40
2019-05-01T10:06:17.142Z,12.03
2019-05-01T10:08:42.310Z,10.80
2019-05-01T10:11:10.665Z,11.10
2019-05-01T10:13:39.059Z,11.90
2019-05-01T10:16:07.562Z,11.47
2019-05-01T10:18:35.924Z,12.13
2019-05-01T10:21:04.286Z,12.17
2019-05-01T10:26:09.072Z,12.40
2019-05-01T10:31:37.135Z,10.23
2019-05-01T10:36:49.897Z,10.90
2019-05-01T10:39:16.007Z,10.10
2019-05-01T10:41:46.231Z,12.03
2019-05-01T10:44:12.233Z,11.70
2019-05-01T10:49:14.974Z,11.50
2019-05-01T10:51:43.360Z,12.00
2019-05-01T10:54:11.727Z,9.60
2019-05-01T10:56:40.178Z,11.57
2019-05-01T10:59:08.538Z,11.50
2019-05-01T11:01:47.785Z,11.33
2019-05-01T11:04:16.252Z,10.83
2019-05-01T11:06:44.657Z,12.45
2019-05-01T11:09:13.018Z,11.70
2019-05-01T11:14:16.470Z,11.20
2019-05-01T11:16:45.297Z,10.63
2019-05-01T11:19:14.611Z,12.00
2019-05-01T11:21:42.995Z,11.40
2019-05-01T11:24:11.352Z,10.37
2019-05-01T11:26:39.754Z,11.97
2019-05-01T11:29:08.136Z,11.27
2019-05-01T11:37:30.603Z,10.90
2019-05-01T11:39:59.697Z,10.20
2019-05-01T11:42:28.072Z,10.37
2019-05-01T11:44:56.456Z,9.93
2019-05-01T11:47:24.802Z,8.40
2019-05-01T11:49:53.161Z,8.60
2019-05-01T11:52:21.520Z,10.00
2019-05-01T11:54:50.125Z,8.60
2019-05-01T11:57:19.020Z,8.27
2019-05-01T11:59:47.397Z,8.03
2019-05-01T12:02:15.774Z,8.53
2019-05-01T12:04:44.292Z,7.50
2019-05-01T12:07:12.724Z,6.60
2019-05-01T12:09:41.123Z,6.80
2019-05-01T12:12:10.201Z,9.03
2019-05-01T12:14:38.581Z,7.70
2019-05-01T12:17:17.715Z,7.90
2019-05-01T12:19:46.327Z,6.97
2019-05-01T12:22:14.700Z,7.97
2019-05-01T12:24:43.057Z,8.07
2019-05-01T12:27:11.404Z,7.50
2019-05-01T12:29:40.356Z,7.53
2019-05-01T12:32:09.369Z,8.37
2019-05-01T12:34:37.759Z,6.97
2019-05-01T12:37:11.481Z,8.50
2019-05-01T12:39:39.826Z,7.97
2019-05-01T12:42:08.351Z,7.67
2019-05-01T12:47:21.754Z,8.43
2019-05-01T12:49:50.112Z,7.93
2019-05-01T12:55:15.995Z,8.18
2019-05-01T12:57:44.347Z,8.35
2019-05-01T13:00:20.290Z,7.50
2019-05-01T13:02:49.629Z,7.90
2019-05-01T13:05:18.016Z,8.75
2019-05-01T13:07:46.370Z,7.90
2019-05-01T13:10:14.767Z,7.30
2019-05-01T13:12:43.141Z,7.37
2019-05-01T13:15:11.501Z,8.50
2019-05-01T13:17:39.860Z,8.27
2019-05-01T13:20:09.153Z,8.52
2019-05-01T13:22:37.505Z,8.10
2019-05-01T13:25:05.942Z,7.70
2019-05-01T13:27:36.125Z,7.83
2019-05-01T13:30:21.748Z,8.20
2019-05-01T13:32:50.108Z,7.43
2019-05-01T13:35:18.475Z,8.80
2019-05-01T13:37:46.832Z,7.33
2019-05-01T13:40:15.275Z,8.20
2019-05-01T13:42:43.658Z,8.88
2019-05-01T13:45:12.109Z,7.40
2019-05-01T13:47:40.464Z,8.83
2019-05-01T13:50:08.834Z,8.90
2019-05-01T13:52:37.186Z,9.33
2019-05-01T13:55:05.662Z,9.25
2019-05-01T13:57:34.052Z,8.57
2019-05-01T14:00:02.483Z,8.90
2019-05-01T14:02:31.478Z,7.87
2019-05-01T14:05:00.020Z,8.60
2019-05-01T14:07:28.474Z,9.27
2019-05-01T14:09:57.877Z,8.00
2019-05-01T14:12:26.238Z,8.77
2019-05-01T14:14:54.685Z,8.60
2019-05-01T14:17:23.001Z,8.17
2019-05-01T14:22:31.319Z,8.98
2019-05-01T14:27:34.280Z,8.50
2019-05-01T14:30:02.597Z,8.30
2019-05-01T14:32:30.997Z,9.10
2019-05-01T14:34:59.377Z,7.57
2019-05-01T14:37:29.704Z,8.95
2019-05-01T14:39:56.876Z,8.77
2019-05-01T14:42:25.240Z,9.17
2019-05-01T14:44:53.590Z,7.60
2019-05-01T14:47:22.063Z,9.25
2019-05-01T14:49:50.414Z,7.97
2019-05-01T14:54:53.260Z,8.70
2019-05-01T14:57:21.741Z,8.00
2019-05-01T14:59:50.099Z,9.37
2019-05-01T15:02:18.499Z,7.60
2019-05-01T15:04:46.872Z,7.90
2019-05-01T15:07:15.269Z,7.73
2019-05-01T15:09:43.637Z,8.00
2019-05-01T15:12:11.985Z,7.57
2019-05-01T15:14:45.890Z,7.60
2019-05-01T15:17:17.476Z,7.97
2019-05-01T15:19:47.864Z,7.60
2019-05-01T15:22:16.214Z,7.13
2019-05-01T15:24:44.572Z,27.90
2019-05-01T15:27:12.943Z,6.70
2019-05-01T15:29:41.296Z,7.40
2019-05-01T15:32:09.705Z,7.50
2019-05-01T15:37:15.348Z,10.60
2019-05-01T15:42:32.897Z,8.30
2019-05-01T15:45:01.346Z,6.80
2019-05-01T15:47:29.705Z,7.53
2019-05-01T15:49:58.095Z,7.37
2019-05-01T15:52:27.179Z,6.63
2019-05-01T15:54:55.600Z,6.90
2019-05-01T15:57:23.945Z,6.47
2019-05-01T16:02:27.727Z,6.95
2019-05-01T16:04:56.187Z,6.43
2019-05-01T16:07:24.563Z,6.27
2019-05-01T16:09:52.916Z,6.63
2019-05-01T16:12:34.096Z,7.43
2019-05-01T16:15:02.517Z,6.90
2019-05-01T16:17:30.875Z,6.57
2019-05-01T16:19:59.222Z,6.00
2019-05-01T16:22:27.566Z,5.07
2019-05-01T16:24:56.874Z,7.25
2019-05-01T16:27:25.349Z,6.60
2019-05-01T16:29:53.738Z,5.20
2019-05-01T16:32:22.080Z,5.97
2019-05-01T16:34:50.508Z,6.40
2019-05-01T16:37:18.847Z,6.57
2019-05-01T16:42:26.510Z,7.63
2019-05-01T16:44:54.892Z,8.47
2019-05-01T16:47:23.253Z,6.77
2019-05-01T16:49:51.627Z,6.50
2019-05-01T16:52:19.987Z,7.00
2019-05-01T16:54:58.764Z,6.87
2019-05-01T16:57:17.827Z,7.32
2019-05-01T16:59:47.227Z,7.07
2019-05-01T17:05:13.359Z,6.95
2019-05-01T17:07:43.633Z,7.20
2019-05-01T17:10:11.999Z,6.90
2019-05-01T17:12:41.222Z,7.10
2019-05-01T17:15:09.601Z,7.20
2019-05-01T17:17:38.056Z,6.73
2019-05-01T17:20:06.419Z,8.00
2019-05-01T17:22:34.817Z,6.63
2019-05-01T17:25:04.129Z,7.07
2019-05-01T17:27:32.513Z,6.70
2019-05-01T17:30:00.925Z,6.97
2019-05-01T17:32:29.273Z,6.93
2019-05-01T17:34:57.715Z,7.23
2019-05-01T17:37:26.032Z,7.20
2019-05-01T17:39:54.422Z,6.93
2019-05-01T17:42:22.893Z,7.20
2019-05-01T17:44:51.298Z,7.73
2019-05-01T17:47:22.498Z,7.10
2019-05-01T17:49:47.983Z,7.30
2019-05-01T17:52:16.449Z,6.77
2019-05-01T17:54:44.825Z,6.40
2019-05-01T17:57:14.235Z,6.70
2019-05-01T17:59:42.580Z,6.40
2019-05-01T18:02:15.371Z,5.53
2019-05-01T18:07:22.320Z,6.00
2019-05-01T18:12:28.559Z,5.43
2019-05-01T18:14:53.377Z,5.65
2019-05-01T18:17:21.765Z,5.33
2019-05-01T18:19:50.442Z,5.40
2019-05-01T18:25:19.866Z,5.27
2019-05-01T18:27:55.686Z,5.30
2019-05-01T18:30:23.248Z,5.70
2019-05-01T18:32:52.450Z,6.87
2019-05-01T18:40:34.087Z,5.47
2019-05-01T18:43:02.203Z,4.90
2019-05-01T18:45:45.413Z,6.00
2019-05-01T18:53:22.234Z,7.00
2019-05-01T18:55:51.530Z,7.30
2019-05-01T18:58:19.925Z,7.40
2019-05-01T19:03:22.705Z,7.00
2019-05-01T19:05:50.968Z,7.10
2019-05-01T19:08:19.336Z,6.60
2019-05-01T19:10:47.688Z,6.60
2019-05-01T19:13:16.040Z,6.28
2019-05-01T19:15:49.986Z,6.43
2019-05-01T19:18:18.816Z,6.87
2019-05-01T19:23:27.961Z,6.80
2019-05-01T19:25:56.484Z,7.28
2019-05-01T19:28:22.204Z,7.00
2019-05-01T19:30:50.535Z,5.50
2019-05-01T19:33:18.921Z,6.13
2019-05-01T19:35:47.373Z,5.60
2019-05-01T19:38:15.711Z,5.97
2019-05-01T19:40:44.069Z,5.60
2019-05-01T19:43:12.462Z,6.03
2019-05-01T19:45:40.787Z,5.90
2019-05-01T19:48:09.125Z,5.73
2019-05-01T19:50:39.972Z,6.10
2019-05-01T19:53:10.016Z,6.07
2019-05-01T19:55:34.243Z,7.40
2019-05-01T19:58:02.586Z,7.63
2019-05-01T20:03:07.173Z,8.63
2019-05-01T20:08:09.764Z,11.05
2019-05-01T20:10:38.133Z,9.70
2019-05-01T20:13:07.082Z,9.53
2019-05-01T20:15:34.808Z,8.17
2019-05-01T20:18:03.148Z,8.03
2019-05-01T20:20:31.483Z,6.40
2019-05-01T20:23:00.332Z,7.70
2019-05-01T20:25:28.663Z,7.63
2019-05-01T20:27:57.392Z,7.20
2019-05-01T20:30:25.327Z,6.20
2019-05-01T20:35:30.228Z,6.80
2019-05-01T20:37:57.526Z,6.53
2019-05-01T20:40:25.863Z,6.53
2019-05-01T20:45:32.572Z,12.57
2019-05-01T20:50:35.218Z,8.35
2019-05-01T20:55:37.792Z,7.22
2019-05-01T20:58:19.735Z,6.77
2019-05-01T21:00:52.873Z,6.60
2019-05-01T21:03:18.191Z,6.10
2019-05-01T21:05:48.545Z,7.00
2019-05-01T21:10:52.058Z,7.72
2019-05-01T21:13:23.133Z,8.43
2019-05-01T21:15:48.822Z,6.80
2019-05-01T21:18:20.978Z,7.32
2019-05-01T21:20:46.560Z,6.77
2019-05-01T21:23:15.617Z,6.93
2019-05-01T21:25:46.992Z,6.85
2019-05-01T21:28:15.331Z,7.63
2019-05-01T21:30:47.365Z,6.70
2019-05-01T21:33:13.873Z,6.60
2019-05-01T21:35:40.421Z,6.70
2019-05-01T21:38:08.777Z,7.53
2019-05-01T21:40:41.030Z,7.53
2019-05-01T21:43:06.452Z,7.17
2019-05-01T21:45:34.848Z,7.20
2019-05-01T21:48:03.217Z,7.30
2019-05-01T21:50:33.446Z,6.77
2019-05-01T21:53:03.291Z,5.73
2019-05-01T21:55:30.145Z,6.80
2019-05-01T21:57:56.548Z,6.47
2019-05-01T22:00:26.068Z,6.60
2019-05-01T22:05:29.520Z,7.85
2019-05-01T22:07:58.795Z,6.93
2019-05-01T22:10:28.280Z,5.90
2019-05-01T22:12:54.541Z,6.60
2019-05-01T22:15:29.464Z,7.77
2019-05-01T22:17:58.245Z,6.90
2019-05-01T22:20:26.576Z,7.43
2019-05-01T22:22:55.294Z,7.00
2019-05-01T22:28:05.745Z,8.25
2019-05-01T22:30:48.953Z,8.57
2019-05-01T22:35:53.509Z,8.60
2019-05-01T22:38:21.873Z,8.30
2019-05-01T22:40:50.697Z,8.17
2019-05-01T22:45:56.223Z,8.32
2019-05-01T22:48:21.646Z,8.63
2019-05-01T22:50:49.983Z,8.80
2019-05-01T22:53:19.320Z,8.10
2019-05-01T22:55:47.716Z,8.35
2019-05-01T22:58:16.107Z,7.03
2019-05-01T23:00:48.702Z,6.60
2019-05-01T23:06:13.944Z,7.80
2019-05-01T23:08:42.370Z,8.37
2019-05-01T23:11:19.724Z,8.38
2019-05-01T23:13:39.136Z,7.87
2019-05-01T23:16:07.591Z,7.90
2019-05-01T23:18:35.917Z,6.20
2019-05-01T23:21:04.301Z,8.33
2019-05-01T23:23:32.668Z,6.57
2019-05-01T23:26:01.048Z,7.77
2019-05-01T23:31:06.968Z,8.85
2019-05-01T23:36:22.367Z,8.50
2019-05-01T23:38:37.963Z,8.13
2019-05-01T23:41:06.392Z,8.73
2019-05-01T23:43:34.779Z,9.07
2019-05-01T23:46:03.127Z,8.40
2019-05-01T23:48:31.471Z,8.98
2019-05-01T23:50:59.824Z,8.80
2019-05-01T23:53:28.160Z,8.50
2019-05-01T23:56:00.190Z,7.63
2019-05-01T23:58:26.212Z,7.70
